PWSweather.com
Personal Weather Stations
Station Observations
KUCEROV1
Npr Větrníky, VyskovCZ 68201

Npr VětrníkyVyskovCZ 68201

Lat: 49.219314, Lon: 17.009937

Elevation: 1001

Station Type: WH2080

Latest ConditionsUpdated 9:45:00 PM GMT+01:01 Sunday, Nov 17, 2019
Currently Today's Max Today's Min Today's Average
Temperature 54.7°F12.6°C 59.5°F15.3°C 45.8°F7.7°C 52.8°F11.6°C
Dew Point 47.6°F8.7°C 52.7°F11.5°C 45.0°F7.2°C 48.6°F9.2°C
Winds 4.5 mph NE7.2 kmh NE 7.6 mph -12.2 kmh - - 3.3 mph 5.3 kmh
Wind Gusts 11.4 mph18.3 kmh 19.7 mph31.7 kmh - -
Humidity 77% 99% 71% 86%
Pressure 29.84 in1010.5 mb 30.01 in1016.3 mb 29.84 in1010.5 mb -
Hour Temp Dew Point Humidity Winds Wind Gusts Pressure Precip Precip Rate Daily Precip Total
09:45 PM 54.7°F12.6°C 47.6°F8.7°C 77% 4.5 mph NE7.2 kmh NE 11.4 mph18.3 kmh 29.84 in1010.5 mb 0.00 in0.0 mm 0.00 in0.0 mm 0.00 in0.0 mm
09:40 PM 54.7°F12.6°C 47.6°F8.7°C 77% 2.4 mph N3.9 kmh N 5.4 mph8.7 kmh 29.84 in1010.5 mb 0.00 in0.0 mm 0.00 in0.0 mm 0.00 in0.0 mm
09:35 PM 54.7°F12.6°C 47.6°F8.7°C 77% 3.1 mph NW5.0 kmh NW 6.0 mph9.7 kmh 29.84 in1010.5 mb 0.00 in0.0 mm 0.00 in0.0 mm 0.00 in0.0 mm
09:30 PM 54.7°F12.6°C 47.9°F8.8°C 78% 3.3 mph NNE5.3 kmh NNE 9.2 mph14.8 kmh 29.84 in1010.5 mb 0.00 in0.0 mm 0.00 in0.0 mm 0.00 in0.0 mm
09:25 PM 54.5°F12.5°C 47.8°F8.8°C 78% 3.4 mph NE5.5 kmh NE 10.7 mph17.2 kmh 29.85 in1010.8 mb 0.00 in0.0 mm 0.00 in0.0 mm 0.00 in0.0 mm
09:20 PM 54.7°F12.6°C 48.0°F8.9°C 78% 3.4 mph NW5.5 kmh NW 7.6 mph12.2 kmh 29.85 in1010.8 mb 0.00 in0.0 mm 0.00 in0.0 mm 0.00 in0.0 mm
09:15 PM 54.8°F12.7°C 48.1°F8.9°C 78% 3.2 mph ESE5.1 kmh ESE 6.0 mph9.7 kmh 29.85 in1010.8 mb 0.00 in0.0 mm 0.00 in0.0 mm 0.00 in0.0 mm
09:10 PM 54.8°F12.7°C 48.0°F8.9°C 78% 3.9 mph NE6.3 kmh NE 9.2 mph14.8 kmh 29.85 in1010.8 mb 0.00 in0.0 mm 0.00 in0.0 mm 0.00 in0.0 mm
09:05 PM 54.7°F12.6°C 48.0°F8.9°C 78% 5.0 mph ESE8.0 kmh ESE 10.7 mph17.2 kmh 29.85 in1010.8 mb 0.00 in0.0 mm 0.00 in0.0 mm 0.00 in0.0 mm
09:00 PM 54.7°F12.6°C 48.0°F8.9°C 78% 4.1 mph NE6.6 kmh NE 11.4 mph18.3 kmh 29.85 in1010.8 mb 0.00 in0.0 mm 0.00 in0.0 mm 0.00 in0.0 mm
08:55 PM 54.7°F12.6°C 48.0°F8.9°C 78% 6.8 mph NE10.9 kmh NE 14.5 mph23.3 kmh 29.85 in1010.8 mb 0.00 in0.0 mm 0.00 in0.0 mm 0.00 in0.0 mm
08:50 PM 54.7°F12.6°C 48.0°F8.9°C 78% 6.9 mph E11.1 kmh E 14.5 mph23.3 kmh 29.85 in1010.8 mb 0.00 in0.0 mm 0.00 in0.0 mm 0.00 in0.0 mm
08:45 PM 54.5°F12.5°C 47.8°F8.8°C 78% 5.9 mph ENE9.5 kmh ENE 16.8 mph27.0 kmh 29.85 in1010.8 mb 0.00 in0.0 mm 0.00 in0.0 mm 0.00 in0.0 mm
08:40 PM 54.5°F12.5°C 47.8°F8.8°C 78% 5.6 mph ENE9.0 kmh ENE 14.5 mph23.3 kmh 29.85 in1010.8 mb 0.00 in0.0 mm 0.00 in0.0 mm 0.00 in0.0 mm
08:35 PM 54.6°F12.6°C 47.9°F8.8°C 78% 4.8 mph E7.7 kmh E 12.1 mph19.5 kmh 29.85 in1010.8 mb 0.00 in0.0 mm 0.00 in0.0 mm 0.00 in0.0 mm
08:30 PM 54.6°F12.6°C 47.9°F8.8°C 78% 5.1 mph S8.2 kmh S 9.8 mph15.8 kmh 29.85 in1010.8 mb 0.00 in0.0 mm 0.00 in0.0 mm 0.00 in0.0 mm
08:25 PM 54.5°F12.5°C 47.8°F8.8°C 78% 7.0 mph ESE11.3 kmh ESE 14.5 mph23.3 kmh 29.86 in1011.2 mb 0.00 in0.0 mm 0.00 in0.0 mm 0.00 in0.0 mm
08:20 PM 54.4°F12.4°C 47.7°F8.7°C 78% 7.6 mph ENE12.2 kmh ENE 16.8 mph27.0 kmh 29.85 in1010.8 mb 0.00 in0.0 mm 0.00 in0.0 mm 0.00 in0.0 mm
08:15 PM 54.3°F12.4°C 47.4°F8.6°C 78% 6.9 mph E11.1 kmh E 14.5 mph23.3 kmh 29.86 in1011.2 mb 0.00 in0.0 mm 0.00 in0.0 mm 0.00 in0.0 mm
08:10 PM 54.1°F12.3°C 47.1°F8.4°C 77% 5.5 mph E8.9 kmh E 15.2 mph24.5 kmh 29.86 in1011.2 mb 0.00 in0.0 mm 0.00 in0.0 mm 0.00 in0.0 mm
08:05 PM 54.1°F12.3°C 47.1°F8.4°C 77% 4.5 mph E7.2 kmh E 9.2 mph14.8 kmh 29.86 in1011.2 mb 0.00 in0.0 mm 0.00 in0.0 mm 0.00 in0.0 mm
08:00 PM 54.0°F12.2°C 47.2°F8.4°C 78% 5.3 mph E8.5 kmh E 12.1 mph19.5 kmh 29.86 in1011.2 mb 0.00 in0.0 mm 0.00 in0.0 mm 0.00 in0.0 mm
07:55 PM 53.8°F12.1°C 47.1°F8.4°C 78% 4.9 mph ENE7.9 kmh ENE 13.6 mph21.9 kmh 29.87 in1011.5 mb 0.00 in0.0 mm 0.00 in0.0 mm 0.00 in0.0 mm
07:50 PM 53.7°F12.1°C 47.0°F8.3°C 78% 2.8 mph NNE4.5 kmh NNE 10.7 mph17.2 kmh 29.87 in1011.5 mb 0.00 in0.0 mm 0.00 in0.0 mm 0.00 in0.0 mm
07:45 PM 53.5°F11.9°C 47.0°F8.3°C 78% 2.5 mph N4.0 kmh N 6.9 mph11.1 kmh 29.87 in1011.5 mb 0.00 in0.0 mm 0.00 in0.0 mm 0.00 in0.0 mm
07:40 PM 53.4°F11.9°C 46.8°F8.2°C 78% 2.5 mph ENE4.0 kmh ENE 9.8 mph15.8 kmh 29.87 in1011.5 mb 0.00 in0.0 mm 0.00 in0.0 mm 0.00 in0.0 mm
07:35 PM 53.7°F12.1°C 46.7°F8.2°C 77% 2.4 mph NW3.9 kmh NW 4.5 mph7.2 kmh 29.87 in1011.5 mb 0.00 in0.0 mm 0.00 in0.0 mm 0.00 in0.0 mm
07:30 PM 54.0°F12.2°C 46.8°F8.2°C 76% 1.2 mph NW1.9 kmh NW 3.1 mph5.0 kmh 29.87 in1011.5 mb 0.00 in0.0 mm 0.00 in0.0 mm 0.00 in0.0 mm
07:25 PM 54.3°F12.4°C 46.9°F8.3°C 76% 1.4 mph WNW2.3 kmh WNW 3.1 mph5.0 kmh 29.87 in1011.5 mb 0.00 in0.0 mm 0.00 in0.0 mm 0.00 in0.0 mm
07:20 PM 54.3°F12.4°C 47.2°F8.4°C 77% 1.6 mph N2.6 kmh N 4.5 mph7.2 kmh 29.87 in1011.5 mb 0.00 in0.0 mm 0.00 in0.0 mm 0.00 in0.0 mm
07:15 PM 54.3°F12.4°C 47.3°F8.5°C 77% 2.4 mph ENE3.9 kmh ENE 6.9 mph11.1 kmh 29.86 in1011.2 mb 0.00 in0.0 mm 0.00 in0.0 mm 0.00 in0.0 mm
07:10 PM 54.1°F12.3°C 47.5°F8.6°C 78% 3.2 mph ENE5.1 kmh ENE 9.2 mph14.8 kmh 29.86 in1011.2 mb 0.00 in0.0 mm 0.00 in0.0 mm 0.00 in0.0 mm
07:05 PM 53.7°F12.1°C 47.5°F8.6°C 80% 2.3 mph ESE3.7 kmh ESE 10.7 mph17.2 kmh 29.86 in1011.2 mb 0.00 in0.0 mm 0.00 in0.0 mm 0.00 in0.0 mm
07:00 PM 53.6°F12.0°C 47.6°F8.7°C 80% 2.0 mph E3.2 kmh E 4.5 mph7.2 kmh 29.86 in1011.2 mb 0.00 in0.0 mm 0.00 in0.0 mm 0.00 in0.0 mm
06:55 PM 53.6°F12.0°C 47.6°F8.7°C 80% 1.9 mph WSW3.1 kmh WSW 5.4 mph8.7 kmh 29.86 in1011.2 mb 0.00 in0.0 mm 0.00 in0.0 mm 0.00 in0.0 mm
06:50 PM 53.7°F12.1°C 47.3°F8.5°C 79% 1.0 mph SW1.6 kmh SW 2.2 mph3.5 kmh 29.86 in1011.2 mb 0.00 in0.0 mm 0.00 in0.0 mm 0.00 in0.0 mm
06:45 PM 53.9°F12.2°C 47.5°F8.6°C 79% 1.5 mph WSW2.4 kmh WSW 3.1 mph5.0 kmh 29.86 in1011.2 mb 0.00 in0.0 mm 0.00 in0.0 mm 0.00 in0.0 mm
06:40 PM 54.0°F12.2°C 47.6°F8.7°C 79% 1.8 mph SW2.9 kmh SW 4.5 mph7.2 kmh 29.85 in1010.8 mb 0.00 in0.0 mm 0.00 in0.0 mm 0.00 in0.0 mm
06:35 PM 54.0°F12.2°C 47.6°F8.7°C 79% 1.8 mph NE2.9 kmh NE 3.8 mph6.1 kmh 29.85 in1010.8 mb 0.00 in0.0 mm 0.00 in0.0 mm 0.00 in0.0 mm
06:30 PM 53.8°F12.1°C 47.8°F8.8°C 80% 2.8 mph SSE4.5 kmh SSE 6.0 mph9.7 kmh 29.85 in1010.8 mb 0.00 in0.0 mm 0.00 in0.0 mm 0.00 in0.0 mm
06:25 PM 53.9°F12.2°C 47.9°F8.8°C 80% 1.8 mph NE2.9 kmh NE 5.4 mph8.7 kmh 29.85 in1010.8 mb 0.00 in0.0 mm 0.00 in0.0 mm 0.00 in0.0 mm
06:20 PM 53.8°F12.1°C 47.8°F8.8°C 80% 0.9 mph NW1.4 kmh NW 3.8 mph6.1 kmh 29.85 in1010.8 mb 0.00 in0.0 mm 0.00 in0.0 mm 0.00 in0.0 mm
06:15 PM 53.8°F12.1°C 47.8°F8.8°C 80% 2.3 mph ESE3.7 kmh ESE 7.6 mph12.2 kmh 29.85 in1010.8 mb 0.00 in0.0 mm 0.00 in0.0 mm 0.00 in0.0 mm
06:10 PM 53.9°F12.2°C 47.8°F8.8°C 80% 1.6 mph NW2.6 kmh NW 3.1 mph5.0 kmh 29.85 in1010.8 mb 0.00 in0.0 mm 0.00 in0.0 mm 0.00 in0.0 mm
06:05 PM 54.0°F12.2°C 47.9°F8.8°C 80% 1.6 mph WNW2.6 kmh WNW 2.2 mph3.5 kmh 29.86 in1011.2 mb 0.00 in0.0 mm 0.00 in0.0 mm 0.00 in0.0 mm
06:00 PM 54.0°F12.2°C 47.9°F8.8°C 80% 1.4 mph E2.3 kmh E 3.1 mph5.0 kmh 29.86 in1011.2 mb 0.00 in0.0 mm 0.00 in0.0 mm 0.00 in0.0 mm
05:55 PM 54.0°F12.2°C 47.9°F8.8°C 80% 1.4 mph NNE2.3 kmh NNE 3.1 mph5.0 kmh 29.86 in1011.2 mb 0.00 in0.0 mm 0.00 in0.0 mm 0.00 in0.0 mm
05:50 PM 54.0°F12.2°C 47.8°F8.8°C 80% 1.6 mph NNE2.6 kmh NNE 3.1 mph5.0 kmh 29.86 in1011.2 mb 0.00 in0.0 mm 0.00 in0.0 mm 0.00 in0.0 mm
05:45 PM 54.1°F12.3°C 47.7°F8.7°C 79% 1.3 mph NNW2.1 kmh NNW 2.2 mph3.5 kmh 29.86 in1011.2 mb 0.00 in0.0 mm 0.00 in0.0 mm 0.00 in0.0 mm
05:40 PM 54.1°F12.3°C 47.8°F8.8°C 79% 1.1 mph NE1.8 kmh NE 2.2 mph3.5 kmh 29.86 in1011.2 mb 0.00 in0.0 mm 0.00 in0.0 mm 0.00 in0.0 mm
05:35 PM 54.3°F12.4°C 47.8°F8.8°C 79% 1.3 mph N2.1 kmh N 2.2 mph3.5 kmh 29.86 in1011.2 mb 0.00 in0.0 mm 0.00 in0.0 mm 0.00 in0.0 mm
05:30 PM 54.5°F12.5°C 47.8°F8.8°C 78% 1.1 mph N1.8 kmh N 3.1 mph5.0 kmh 29.86 in1011.2 mb 0.00 in0.0 mm 0.00 in0.0 mm 0.00 in0.0 mm
05:25 PM 54.6°F12.6°C 47.9°F8.8°C 78% 1.1 mph NW1.8 kmh NW 3.1 mph5.0 kmh 29.86 in1011.2 mb 0.00 in0.0 mm 0.00 in0.0 mm 0.00 in0.0 mm
05:20 PM 54.7°F12.6°C 48.0°F8.9°C 78% 1.4 mph NW2.3 kmh NW 3.1 mph5.0 kmh 29.86 in1011.2 mb 0.00 in0.0 mm 0.00 in0.0 mm 0.00 in0.0 mm
05:15 PM 54.9°F12.7°C 48.1°F8.9°C 78% 1.7 mph N2.7 kmh N 3.8 mph6.1 kmh 29.86 in1011.2 mb 0.00 in0.0 mm 0.00 in0.0 mm 0.00 in0.0 mm
05:10 PM 55.0°F12.8°C 48.2°F9.0°C 78% 1.7 mph NNE2.7 kmh NNE 3.8 mph6.1 kmh 29.86 in1011.2 mb 0.00 in0.0 mm 0.00 in0.0 mm 0.00 in0.0 mm
05:05 PM 55.0°F12.8°C 48.2°F9.0°C 78% 1.9 mph NE3.1 kmh NE 3.8 mph6.1 kmh 29.86 in1011.2 mb 0.00 in0.0 mm 0.00 in0.0 mm 0.00 in0.0 mm
05:00 PM 55.0°F12.8°C 48.3°F9.1°C 78% 1.9 mph NNE3.1 kmh NNE 4.5 mph7.2 kmh 29.86 in1011.2 mb 0.00 in0.0 mm 0.00 in0.0 mm 0.00 in0.0 mm
04:55 PM 55.0°F12.8°C 48.3°F9.1°C 78% 2.3 mph NE3.7 kmh NE 5.4 mph8.7 kmh 29.86 in1011.2 mb 0.00 in0.0 mm 0.00 in0.0 mm 0.00 in0.0 mm
04:50 PM 55.0°F12.8°C 48.3°F9.1°C 78% 2.5 mph N4.0 kmh N 4.5 mph7.2 kmh 29.86 in1011.2 mb 0.00 in0.0 mm 0.00 in0.0 mm 0.00 in0.0 mm
04:45 PM 55.0°F12.8°C 48.2°F9.0°C 78% 2.2 mph N3.5 kmh N 3.8 mph6.1 kmh 29.86 in1011.2 mb 0.00 in0.0 mm 0.00 in0.0 mm 0.00 in0.0 mm
04:40 PM 54.9°F12.7°C 48.1°F8.9°C 78% 2.7 mph NNE4.3 kmh NNE 4.5 mph7.2 kmh 29.85 in1010.8 mb 0.00 in0.0 mm 0.00 in0.0 mm 0.00 in0.0 mm
04:35 PM 54.9°F12.7°C 48.1°F8.9°C 78% 2.0 mph 3.2 kmh 5.4 mph8.7 kmh 29.85 in1010.8 mb 0.00 in0.0 mm 0.00 in0.0 mm 0.00 in0.0 mm
04:30 PM 55.1°F12.8°C 48.1°F8.9°C 77% 1.8 mph NW2.9 kmh NW 3.1 mph5.0 kmh 29.85 in1010.8 mb 0.00 in0.0 mm 0.00 in0.0 mm 0.00 in0.0 mm
04:25 PM 55.4°F13.0°C 48.3°F9.1°C 77% 1.8 mph NW2.9 kmh NW 3.8 mph6.1 kmh 29.85 in1010.8 mb 0.00 in0.0 mm 0.00 in0.0 mm 0.00 in0.0 mm
04:20 PM 55.8°F13.2°C 48.4°F9.1°C 76% 1.8 mph NNW2.9 kmh NNW 3.8 mph6.1 kmh 29.86 in1011.2 mb 0.00 in0.0 mm 0.00 in0.0 mm 0.00 in0.0 mm
04:15 PM 56.1°F13.4°C 48.6°F9.2°C 76% 2.2 mph WNW3.5 kmh WNW 3.8 mph6.1 kmh 29.85 in1010.8 mb 0.00 in0.0 mm 0.00 in0.0 mm 0.00 in0.0 mm
04:10 PM 56.6°F13.7°C 48.9°F9.4°C 76% 1.6 mph N2.6 kmh N 3.8 mph6.1 kmh 29.85 in1010.8 mb 0.00 in0.0 mm 0.00 in0.0 mm 0.00 in0.0 mm
04:05 PM 56.8°F13.8°C 49.0°F9.4°C 75% 1.6 mph NE2.6 kmh NE 3.8 mph6.1 kmh 29.85 in1010.8 mb 0.00 in0.0 mm 0.00 in0.0 mm 0.00 in0.0 mm
04:00 PM 57.0°F13.9°C 49.1°F9.5°C 75% 2.0 mph SW3.2 kmh SW 3.8 mph6.1 kmh 29.85 in1010.8 mb 0.00 in0.0 mm 0.00 in0.0 mm 0.00 in0.0 mm
03:55 PM 57.3°F14.1°C 49.1°F9.5°C 74% 2.4 mph S3.9 kmh S 6.0 mph9.7 kmh 29.85 in1010.8 mb 0.00 in0.0 mm 0.00 in0.0 mm 0.00 in0.0 mm
03:50 PM 57.7°F14.3°C 49.1°F9.5°C 73% 2.3 mph NNE3.7 kmh NNE 5.4 mph8.7 kmh 29.85 in1010.8 mb 0.00 in0.0 mm 0.00 in0.0 mm 0.00 in0.0 mm
03:45 PM 58.0°F14.4°C 49.1°F9.5°C 72% 4.0 mph ENE6.4 kmh ENE 9.2 mph14.8 kmh 29.85 in1010.8 mb 0.00 in0.0 mm 0.00 in0.0 mm 0.00 in0.0 mm
03:40 PM 58.3°F14.6°C 49.1°F9.5°C 72% 5.2 mph ENE8.4 kmh ENE 13.0 mph20.9 kmh 29.85 in1010.8 mb 0.00 in0.0 mm 0.00 in0.0 mm 0.00 in0.0 mm
03:35 PM 58.6°F14.8°C 49.3°F9.6°C 71% 6.9 mph ESE11.1 kmh ESE 13.0 mph20.9 kmh 29.84 in1010.5 mb 0.00 in0.0 mm 0.00 in0.0 mm 0.00 in0.0 mm
03:30 PM 58.8°F14.9°C 49.4°F9.7°C 71% 6.8 mph E10.9 kmh E 14.5 mph23.3 kmh 29.85 in1010.8 mb 0.00 in0.0 mm 0.00 in0.0 mm 0.00 in0.0 mm
03:25 PM 59.0°F15.0°C 49.5°F9.7°C 71% 6.3 mph ESE10.1 kmh ESE 11.4 mph18.3 kmh 29.85 in1010.8 mb 0.00 in0.0 mm 0.00 in0.0 mm 0.00 in0.0 mm
03:20 PM 59.0°F15.0°C 49.6°F9.8°C 71% 7.0 mph ENE11.3 kmh ENE 13.6 mph21.9 kmh 29.85 in1010.8 mb 0.00 in0.0 mm 0.00 in0.0 mm 0.00 in0.0 mm
03:15 PM 59.0°F15.0°C 49.7°F9.8°C 71% 6.5 mph E10.5 kmh E 11.4 mph18.3 kmh 29.85 in1010.8 mb 0.00 in0.0 mm 0.00 in0.0 mm 0.00 in0.0 mm
03:10 PM 59.1°F15.1°C 50.2°F10.1°C 72% 7.0 mph ESE11.3 kmh ESE 17.4 mph28.0 kmh 29.85 in1010.8 mb 0.00 in0.0 mm 0.00 in0.0 mm 0.00 in0.0 mm
03:05 PM 59.2°F15.1°C 50.2°F10.1°C 72% 4.2 mph E6.8 kmh E 9.2 mph14.8 kmh 29.85 in1010.8 mb 0.00 in0.0 mm 0.00 in0.0 mm 0.00 in0.0 mm
03:00 PM 59.2°F15.1°C 50.2°F10.1°C 72% 4.3 mph NE6.9 kmh NE 8.3 mph13.4 kmh 29.85 in1010.8 mb 0.00 in0.0 mm 0.00 in0.0 mm 0.00 in0.0 mm
02:55 PM 59.3°F15.2°C 50.3°F10.2°C 72% 3.2 mph E5.1 kmh E 7.6 mph12.2 kmh 29.85 in1010.8 mb 0.00 in0.0 mm 0.00 in0.0 mm 0.00 in0.0 mm
02:50 PM 59.4°F15.2°C 50.0°F10.0°C 71% 5.2 mph ENE8.4 kmh ENE 10.7 mph17.2 kmh 29.85 in1010.8 mb 0.00 in0.0 mm 0.00 in0.0 mm 0.00 in0.0 mm
02:45 PM 59.4°F15.2°C 50.2°F10.1°C 72% 2.4 mph NE3.9 kmh NE 8.3 mph13.4 kmh 29.85 in1010.8 mb 0.00 in0.0 mm 0.00 in0.0 mm 0.00 in0.0 mm
02:40 PM 59.5°F15.3°C 50.5°F10.3°C 72% 7.3 mph E11.7 kmh E 13.0 mph20.9 kmh 29.85 in1010.8 mb 0.00 in0.0 mm 0.00 in0.0 mm 0.00 in0.0 mm
02:35 PM 59.5°F15.3°C 50.9°F10.5°C 73% 5.4 mph ESE8.7 kmh ESE 13.0 mph20.9 kmh 29.85 in1010.8 mb 0.00 in0.0 mm 0.00 in0.0 mm 0.00 in0.0 mm
02:30 PM 59.5°F15.3°C 50.9°F10.5°C 73% 3.7 mph E6.0 kmh E 9.2 mph14.8 kmh 29.86 in1011.2 mb 0.00 in0.0 mm 0.00 in0.0 mm 0.00 in0.0 mm
02:25 PM 59.5°F15.3°C 50.9°F10.5°C 73% 3.9 mph NE6.3 kmh NE 9.8 mph15.8 kmh 29.85 in1010.8 mb 0.00 in0.0 mm 0.00 in0.0 mm 0.00 in0.0 mm
02:20 PM 59.5°F15.3°C 50.9°F10.5°C 73% 5.7 mph ESE9.2 kmh ESE 12.1 mph19.5 kmh 29.86 in1011.2 mb 0.00 in0.0 mm 0.00 in0.0 mm 0.00 in0.0 mm
02:15 PM 59.5°F15.3°C 51.2°F10.7°C 74% 4.5 mph ESE7.2 kmh ESE 11.4 mph18.3 kmh 29.85 in1010.8 mb 0.00 in0.0 mm 0.00 in0.0 mm 0.00 in0.0 mm
02:10 PM 59.4°F15.2°C 51.1°F10.6°C 74% 4.4 mph E7.1 kmh E 9.8 mph15.8 kmh 29.85 in1010.8 mb 0.00 in0.0 mm 0.00 in0.0 mm 0.00 in0.0 mm
02:05 PM 59.4°F15.2°C 51.1°F10.6°C 74% 4.5 mph ESE7.2 kmh ESE 6.9 mph11.1 kmh 29.85 in1010.8 mb 0.00 in0.0 mm 0.00 in0.0 mm 0.00 in0.0 mm
02:00 PM 59.4°F15.2°C 51.1°F10.6°C 74% 4.5 mph ENE7.2 kmh ENE 8.3 mph13.4 kmh 29.86 in1011.2 mb 0.00 in0.0 mm 0.00 in0.0 mm 0.00 in0.0 mm
01:55 PM 59.4°F15.2°C 51.1°F10.6°C 74% 3.4 mph NE5.5 kmh NE 7.6 mph12.2 kmh 29.86 in1011.2 mb 0.00 in0.0 mm 0.00 in0.0 mm 0.00 in0.0 mm
01:50 PM 59.4°F15.2°C 51.1°F10.6°C 74% 3.4 mph NE5.5 kmh NE 8.3 mph13.4 kmh 29.86 in1011.2 mb 0.00 in0.0 mm 0.00 in0.0 mm 0.00 in0.0 mm
01:45 PM 59.4°F15.2°C 51.1°F10.6°C 74% 3.7 mph E6.0 kmh E 9.8 mph15.8 kmh 29.86 in1011.2 mb 0.00 in0.0 mm 0.00 in0.0 mm 0.00 in0.0 mm
01:40 PM 59.2°F15.1°C 50.9°F10.5°C 74% 5.4 mph ESE8.7 kmh ESE 10.7 mph17.2 kmh 29.86 in1011.2 mb 0.00 in0.0 mm 0.00 in0.0 mm 0.00 in0.0 mm
01:35 PM 59.2°F15.1°C 50.9°F10.5°C 74% 5.1 mph ENE8.2 kmh ENE 12.1 mph19.5 kmh 29.86 in1011.2 mb 0.00 in0.0 mm 0.00 in0.0 mm 0.00 in0.0 mm
01:30 PM 59.1°F15.1°C 50.8°F10.4°C 74% 6.2 mph ENE10.0 kmh ENE 13.0 mph20.9 kmh 29.86 in1011.2 mb 0.00 in0.0 mm 0.00 in0.0 mm 0.00 in0.0 mm
01:25 PM 59.0°F15.0°C 50.7°F10.4°C 74% 5.8 mph SE9.3 kmh SE 10.7 mph17.2 kmh 29.86 in1011.2 mb 0.00 in0.0 mm 0.00 in0.0 mm 0.00 in0.0 mm
01:20 PM 59.0°F15.0°C 51.0°F10.6°C 75% 5.7 mph SE9.2 kmh SE 11.4 mph18.3 kmh 29.86 in1011.2 mb 0.00 in0.0 mm 0.00 in0.0 mm 0.00 in0.0 mm
01:15 PM 59.0°F15.0°C 51.1°F10.6°C 75% 6.6 mph E10.6 kmh E 14.5 mph23.3 kmh 29.86 in1011.2 mb 0.00 in0.0 mm 0.00 in0.0 mm 0.00 in0.0 mm
01:10 PM 59.0°F15.0°C 50.8°F10.4°C 74% 4.5 mph SE7.2 kmh SE 11.4 mph18.3 kmh 29.86 in1011.2 mb 0.00 in0.0 mm 0.00 in0.0 mm 0.00 in0.0 mm
01:05 PM 59.0°F15.0°C 50.7°F10.4°C 74% 6.0 mph E9.7 kmh E 12.1 mph19.5 kmh 29.86 in1011.2 mb 0.00 in0.0 mm 0.00 in0.0 mm 0.00 in0.0 mm
01:00 PM 58.9°F14.9°C 50.8°F10.4°C 75% 5.1 mph E8.2 kmh E 11.4 mph18.3 kmh 29.87 in1011.5 mb 0.00 in0.0 mm 0.00 in0.0 mm 0.00 in0.0 mm
12:55 PM 58.8°F14.9°C 51.0°F10.6°C 75% 5.3 mph ENE8.5 kmh ENE 15.2 mph24.5 kmh 29.87 in1011.5 mb 0.00 in0.0 mm 0.00 in0.0 mm 0.00 in0.0 mm
12:50 PM 58.8°F14.9°C 51.2°F10.7°C 76% 4.5 mph NE7.2 kmh NE 11.4 mph18.3 kmh 29.87 in1011.5 mb 0.00 in0.0 mm 0.00 in0.0 mm 0.00 in0.0 mm
12:45 PM 58.5°F14.7°C 51.0°F10.6°C 76% 5.3 mph E8.5 kmh E 11.4 mph18.3 kmh 29.87 in1011.5 mb 0.00 in0.0 mm 0.00 in0.0 mm 0.00 in0.0 mm
12:40 PM 58.5°F14.7°C 50.9°F10.5°C 76% 2.7 mph N4.3 kmh N 5.4 mph8.7 kmh 29.88 in1011.9 mb 0.00 in0.0 mm 0.00 in0.0 mm 0.00 in0.0 mm
12:35 PM 58.4°F14.7°C 50.9°F10.5°C 76% 3.8 mph NE6.1 kmh NE 10.7 mph17.2 kmh 29.88 in1011.9 mb 0.00 in0.0 mm 0.00 in0.0 mm 0.00 in0.0 mm
12:30 PM 58.3°F14.6°C 50.7°F10.4°C 76% 5.5 mph NNE8.9 kmh NNE 9.8 mph15.8 kmh 29.88 in1011.9 mb 0.00 in0.0 mm 0.00 in0.0 mm 0.00 in0.0 mm
12:25 PM 58.3°F14.6°C 50.6°F10.3°C 76% 4.2 mph NE6.8 kmh NE 9.2 mph14.8 kmh 29.88 in1011.9 mb 0.00 in0.0 mm 0.00 in0.0 mm 0.00 in0.0 mm
12:20 PM 58.2°F14.6°C 50.4°F10.2°C 75% 5.7 mph ESE9.2 kmh ESE 9.8 mph15.8 kmh 29.89 in1012.2 mb 0.00 in0.0 mm 0.00 in0.0 mm 0.00 in0.0 mm
12:15 PM 58.1°F14.5°C 50.4°F10.2°C 76% 5.9 mph ENE9.5 kmh ENE 12.1 mph19.5 kmh 29.89 in1012.2 mb 0.00 in0.0 mm 0.00 in0.0 mm 0.00 in0.0 mm
12:10 PM 58.0°F14.4°C 50.7°F10.4°C 76% 7.2 mph E11.6 kmh E 14.5 mph23.3 kmh 29.89 in1012.2 mb 0.00 in0.0 mm 0.00 in0.0 mm 0.00 in0.0 mm
12:05 PM 57.9°F14.4°C 50.8°F10.4°C 77% 7.6 mph E12.2 kmh E 12.1 mph19.5 kmh 29.89 in1012.2 mb 0.00 in0.0 mm 0.00 in0.0 mm 0.00 in0.0 mm
12:00 PM 57.8°F14.3°C 50.6°F10.3°C 77% 6.8 mph ESE10.9 kmh ESE 12.1 mph19.5 kmh 29.89 in1012.2 mb 0.00 in0.0 mm 0.00 in0.0 mm 0.00 in0.0 mm
11:55 AM 57.7°F14.3°C 50.6°F10.3°C 77% 5.0 mph E8.0 kmh E 10.7 mph17.2 kmh 29.89 in1012.2 mb 0.00 in0.0 mm 0.00 in0.0 mm 0.00 in0.0 mm
11:50 AM 57.7°F14.3°C 50.5°F10.3°C 77% 5.0 mph E8.0 kmh E 9.2 mph14.8 kmh 29.89 in1012.2 mb 0.00 in0.0 mm 0.00 in0.0 mm 0.00 in0.0 mm
11:45 AM 57.4°F14.1°C 50.3°F10.2°C 77% 3.9 mph NE6.3 kmh NE 9.2 mph14.8 kmh 29.89 in1012.2 mb 0.00 in0.0 mm 0.00 in0.0 mm 0.00 in0.0 mm
11:40 AM 57.4°F14.1°C 50.2°F10.1°C 77% 3.8 mph NE6.1 kmh NE 9.2 mph14.8 kmh 29.90 in1012.5 mb 0.00 in0.0 mm 0.00 in0.0 mm 0.00 in0.0 mm
11:35 AM 57.2°F14.0°C 50.1°F10.1°C 77% 5.5 mph SE8.9 kmh SE 11.4 mph18.3 kmh 29.90 in1012.5 mb 0.00 in0.0 mm 0.00 in0.0 mm 0.00 in0.0 mm
11:30 AM 57.0°F13.9°C 50.2°F10.1°C 78% 4.4 mph W7.1 kmh W 8.3 mph13.4 kmh 29.90 in1012.5 mb 0.00 in0.0 mm 0.00 in0.0 mm 0.00 in0.0 mm
11:25 AM 57.0°F13.9°C 50.2°F10.1°C 78% 5.4 mph ENE8.7 kmh ENE 9.8 mph15.8 kmh 29.90 in1012.5 mb 0.00 in0.0 mm 0.00 in0.0 mm 0.00 in0.0 mm
11:20 AM 56.8°F13.8°C 50.1°F10.1°C 78% 6.1 mph ESE9.8 kmh ESE 13.0 mph20.9 kmh 29.90 in1012.5 mb 0.00 in0.0 mm 0.00 in0.0 mm 0.00 in0.0 mm
11:15 AM 56.7°F13.7°C 50.0°F10.0°C 78% 5.0 mph NE8.0 kmh NE 12.1 mph19.5 kmh 29.91 in1012.9 mb 0.00 in0.0 mm 0.00 in0.0 mm 0.00 in0.0 mm
11:10 AM 56.5°F13.6°C 50.1°F10.1°C 79% 3.5 mph NE5.6 kmh NE 9.8 mph15.8 kmh 29.91 in1012.9 mb 0.00 in0.0 mm 0.00 in0.0 mm 0.00 in0.0 mm
11:05 AM 56.3°F13.5°C 49.9°F9.9°C 79% 4.2 mph E6.8 kmh E 8.3 mph13.4 kmh 29.91 in1012.9 mb 0.00 in0.0 mm 0.00 in0.0 mm 0.00 in0.0 mm
11:00 AM 56.1°F13.4°C 49.6°F9.8°C 79% 5.2 mph E8.4 kmh E 13.6 mph21.9 kmh 29.91 in1012.9 mb 0.00 in0.0 mm 0.00 in0.0 mm 0.00 in0.0 mm
10:55 AM 55.9°F13.3°C 49.9°F9.9°C 80% 6.7 mph E10.8 kmh E 13.6 mph21.9 kmh 29.91 in1012.9 mb 0.00 in0.0 mm 0.00 in0.0 mm 0.00 in0.0 mm
10:50 AM 55.8°F13.2°C 49.6°F9.8°C 80% 5.3 mph SSE8.5 kmh SSE 9.8 mph15.8 kmh 29.91 in1012.9 mb 0.00 in0.0 mm 0.00 in0.0 mm 0.00 in0.0 mm
10:45 AM 55.8°F13.2°C 49.7°F9.8°C 80% 6.5 mph ENE10.5 kmh ENE 15.2 mph24.5 kmh 29.91 in1012.9 mb 0.00 in0.0 mm 0.00 in0.0 mm 0.00 in0.0 mm
10:40 AM 55.8°F13.2°C 49.7°F9.8°C 80% 7.0 mph E11.3 kmh E 13.6 mph21.9 kmh 29.92 in1013.2 mb 0.00 in0.0 mm 0.00 in0.0 mm 0.00 in0.0 mm
10:35 AM 55.6°F13.1°C 49.7°F9.8°C 80% 5.2 mph ENE8.4 kmh ENE 13.6 mph21.9 kmh 29.92 in1013.2 mb 0.00 in0.0 mm 0.00 in0.0 mm 0.00 in0.0 mm
10:30 AM 55.6°F13.1°C 49.8°F9.9°C 81% 7.6 mph SE12.2 kmh SE 19.7 mph31.7 kmh 29.92 in1013.2 mb 0.00 in0.0 mm 0.00 in0.0 mm 0.00 in0.0 mm
10:25 AM 55.5°F13.1°C 49.8°F9.9°C 81% 5.4 mph NE8.7 kmh NE 10.7 mph17.2 kmh 29.92 in1013.2 mb 0.00 in0.0 mm 0.00 in0.0 mm 0.00 in0.0 mm
10:20 AM 55.4°F13.0°C 49.7°F9.8°C 81% 6.1 mph NE9.8 kmh NE 11.4 mph18.3 kmh 29.92 in1013.2 mb 0.00 in0.0 mm 0.00 in0.0 mm 0.00 in0.0 mm
10:15 AM 55.4°F13.0°C 49.9°F9.9°C 82% 6.9 mph ESE11.1 kmh ESE 14.5 mph23.3 kmh 29.92 in1013.2 mb 0.00 in0.0 mm 0.00 in0.0 mm 0.00 in0.0 mm
10:10 AM 55.2°F12.9°C 50.3°F10.2°C 84% 4.9 mph SE7.9 kmh SE 9.8 mph15.8 kmh 29.93 in1013.5 mb 0.00 in0.0 mm 0.00 in0.0 mm 0.00 in0.0 mm
10:05 AM 55.0°F12.8°C 50.3°F10.2°C 84% 4.5 mph SE7.2 kmh SE 7.6 mph12.2 kmh 29.93 in1013.5 mb 0.00 in0.0 mm 0.00 in0.0 mm 0.00 in0.0 mm
10:00 AM 55.0°F12.8°C 50.6°F10.3°C 85% 5.2 mph E8.4 kmh E 13.0 mph20.9 kmh 29.92 in1013.2 mb 0.00 in0.0 mm 0.00 in0.0 mm 0.00 in0.0 mm
09:55 AM 54.9°F12.7°C 50.9°F10.5°C 86% 5.3 mph E8.5 kmh E 10.7 mph17.2 kmh 29.92 in1013.2 mb 0.00 in0.0 mm 0.00 in0.0 mm 0.00 in0.0 mm
09:50 AM 54.5°F12.5°C 51.5°F10.8°C 90% 5.7 mph E9.2 kmh E 10.7 mph17.2 kmh 29.92 in1013.2 mb 0.00 in0.0 mm 0.00 in0.0 mm 0.00 in0.0 mm
09:45 AM 54.3°F12.4°C 52.1°F11.2°C 92% 3.9 mph E6.3 kmh E 13.0 mph20.9 kmh 29.92 in1013.2 mb 0.00 in0.0 mm 0.00 in0.0 mm 0.00 in0.0 mm
09:40 AM 54.0°F12.2°C 52.3°F11.3°C 94% 4.5 mph E7.2 kmh E 8.3 mph13.4 kmh 29.92 in1013.2 mb 0.00 in0.0 mm 0.00 in0.0 mm 0.00 in0.0 mm
09:35 AM 53.7°F12.1°C 52.7°F11.5°C 96% 4.3 mph NNE6.9 kmh NNE 10.7 mph17.2 kmh 29.93 in1013.5 mb 0.00 in0.0 mm 0.00 in0.0 mm 0.00 in0.0 mm
09:30 AM 53.3°F11.8°C 52.7°F11.5°C 98% 3.0 mph SW4.8 kmh SW 7.6 mph12.2 kmh 29.93 in1013.5 mb 0.00 in0.0 mm 0.00 in0.0 mm 0.00 in0.0 mm
09:25 AM 52.7°F11.5°C 52.2°F11.2°C 98% 4.7 mph ENE7.6 kmh ENE 9.2 mph14.8 kmh 29.93 in1013.5 mb 0.00 in0.0 mm 0.00 in0.0 mm 0.00 in0.0 mm
09:20 AM 52.1°F11.2°C 51.5°F10.8°C 98% 4.8 mph E7.7 kmh E 9.8 mph15.8 kmh 29.93 in1013.5 mb 0.00 in0.0 mm 0.00 in0.0 mm 0.00 in0.0 mm
09:15 AM 51.4°F10.8°C 51.2°F10.7°C 99% 4.0 mph E6.4 kmh E 8.3 mph13.4 kmh 29.94 in1013.9 mb 0.00 in0.0 mm 0.00 in0.0 mm 0.00 in0.0 mm
09:10 AM 50.9°F10.5°C 50.6°F10.3°C 99% 1.5 mph E2.4 kmh E 5.4 mph8.7 kmh 29.94 in1013.9 mb 0.00 in0.0 mm 0.00 in0.0 mm 0.00 in0.0 mm
09:05 AM 50.2°F10.1°C 49.9°F9.9°C 99% 2.9 mph ENE4.7 kmh ENE 5.4 mph8.7 kmh 29.94 in1013.9 mb 0.00 in0.0 mm 0.00 in0.0 mm 0.00 in0.0 mm
09:00 AM 49.8°F9.9°C 49.5°F9.7°C 99% 1.9 mph NE3.1 kmh NE 3.8 mph6.1 kmh 29.95 in1014.2 mb 0.00 in0.0 mm 0.00 in0.0 mm 0.00 in0.0 mm
08:55 AM 49.4°F9.7°C 49.1°F9.5°C 99% 2.5 mph E4.0 kmh E 3.8 mph6.1 kmh 29.95 in1014.2 mb 0.00 in0.0 mm 0.00 in0.0 mm 0.00 in0.0 mm
08:50 AM 49.2°F9.6°C 48.9°F9.4°C 99% 0.9 mph NE1.4 kmh NE 3.8 mph6.1 kmh 29.95 in1014.2 mb 0.00 in0.0 mm 0.00 in0.0 mm 0.00 in0.0 mm
08:45 AM 49.0°F9.4°C 48.7°F9.3°C 99% 0.1 mph NE0.2 kmh NE 2.2 mph3.5 kmh 29.95 in1014.2 mb 0.00 in0.0 mm 0.00 in0.0 mm 0.00 in0.0 mm
08:40 AM 48.8°F9.3°C 48.5°F9.2°C 99% 1.0 mph N1.6 kmh N 2.2 mph3.5 kmh 29.95 in1014.2 mb 0.00 in0.0 mm 0.00 in0.0 mm 0.00 in0.0 mm
08:35 AM 48.6°F9.2°C 48.4°F9.1°C 99% 0.1 mph 0.2 kmh 1.6 mph2.6 kmh 29.95 in1014.2 mb 0.00 in0.0 mm 0.00 in0.0 mm 0.00 in0.0 mm
08:30 AM 48.6°F9.2°C 48.3°F9.1°C 99% 0.1 mph SW0.2 kmh SW 1.6 mph2.6 kmh 29.95 in1014.2 mb 0.00 in0.0 mm 0.00 in0.0 mm 0.00 in0.0 mm
08:25 AM 48.4°F9.1°C 48.1°F8.9°C 99% Calm Calm 0.7 mph1.1 kmh 29.95 in1014.2 mb 0.00 in0.0 mm 0.00 in0.0 mm 0.00 in0.0 mm
08:20 AM 48.4°F9.1°C 48.1°F8.9°C 99% Calm Calm -- 29.95 in1014.2 mb 0.00 in0.0 mm 0.00 in0.0 mm 0.00 in0.0 mm
08:15 AM 48.3°F9.1°C 48.0°F8.9°C 99% 0.5 mph ENE0.8 kmh ENE 2.2 mph3.5 kmh 29.95 in1014.2 mb 0.00 in0.0 mm 0.00 in0.0 mm 0.00 in0.0 mm
08:10 AM 47.7°F8.7°C 47.4°F8.6°C 99% 1.0 mph E1.6 kmh E 2.2 mph3.5 kmh 29.95 in1014.2 mb 0.00 in0.0 mm 0.00 in0.0 mm 0.00 in0.0 mm
08:05 AM 47.5°F8.6°C 47.2°F8.4°C 99% 1.6 mph E2.6 kmh E 2.2 mph3.5 kmh 29.95 in1014.2 mb 0.00 in0.0 mm 0.00 in0.0 mm 0.00 in0.0 mm
08:00 AM 47.5°F8.6°C 47.2°F8.4°C 99% 1.6 mph NE2.6 kmh NE 3.1 mph5.0 kmh 29.95 in1014.2 mb 0.00 in0.0 mm 0.00 in0.0 mm 0.00 in0.0 mm
07:55 AM 47.5°F8.6°C 47.2°F8.4°C 99% 1.9 mph E3.1 kmh E 3.1 mph5.0 kmh 29.95 in1014.2 mb 0.00 in0.0 mm 0.00 in0.0 mm 0.00 in0.0 mm
07:50 AM 47.3°F8.5°C 47.0°F8.3°C 99% 2.9 mph E4.7 kmh E 4.5 mph7.2 kmh 29.95 in1014.2 mb 0.00 in0.0 mm 0.00 in0.0 mm 0.00 in0.0 mm
07:45 AM 47.2°F8.4°C 47.0°F8.3°C 99% 3.2 mph NE5.1 kmh NE 4.5 mph7.2 kmh 29.95 in1014.2 mb 0.00 in0.0 mm 0.00 in0.0 mm 0.00 in0.0 mm
07:40 AM 47.1°F8.4°C 46.9°F8.3°C 99% 3.3 mph NE5.3 kmh NE 5.4 mph8.7 kmh 29.95 in1014.2 mb 0.00 in0.0 mm 0.00 in0.0 mm 0.00 in0.0 mm
07:35 AM 47.1°F8.4°C 46.9°F8.3°C 99% 3.8 mph NE6.1 kmh NE 6.9 mph11.1 kmh 29.95 in1014.2 mb 0.00 in0.0 mm 0.00 in0.0 mm 0.00 in0.0 mm
07:30 AM 46.9°F8.3°C 46.7°F8.2°C 99% 4.0 mph NE6.4 kmh NE 6.0 mph9.7 kmh 29.95 in1014.2 mb 0.00 in0.0 mm 0.00 in0.0 mm 0.00 in0.0 mm
07:25 AM 46.9°F8.3°C 46.7°F8.2°C 99% 4.3 mph ENE6.9 kmh ENE 6.9 mph11.1 kmh 29.95 in1014.2 mb 0.00 in0.0 mm 0.00 in0.0 mm 0.00 in0.0 mm
07:20 AM 47.0°F8.3°C 46.7°F8.2°C 99% 2.8 mph E4.5 kmh E 5.4 mph8.7 kmh 29.95 in1014.2 mb 0.00 in0.0 mm 0.00 in0.0 mm 0.00 in0.0 mm
07:15 AM 47.1°F8.4°C 46.9°F8.3°C 99% 2.8 mph E4.5 kmh E 5.4 mph8.7 kmh 29.95 in1014.2 mb 0.00 in0.0 mm 0.00 in0.0 mm 0.00 in0.0 mm
07:10 AM 46.8°F8.2°C 46.5°F8.1°C 99% 3.3 mph E5.3 kmh E 5.4 mph8.7 kmh 29.95 in1014.2 mb 0.00 in0.0 mm 0.00 in0.0 mm 0.00 in0.0 mm
07:05 AM 46.3°F7.9°C 45.8°F7.7°C 98% 4.2 mph E6.8 kmh E 6.9 mph11.1 kmh 29.95 in1014.2 mb 0.00 in0.0 mm 0.00 in0.0 mm 0.00 in0.0 mm
07:00 AM 46.1°F7.8°C 45.3°F7.4°C 97% 4.4 mph NE7.1 kmh NE 6.9 mph11.1 kmh 29.95 in1014.2 mb 0.00 in0.0 mm 0.00 in0.0 mm 0.00 in0.0 mm
06:55 AM 45.9°F7.7°C 45.1°F7.3°C 97% 4.8 mph ENE7.7 kmh ENE 6.9 mph11.1 kmh 29.95 in1014.2 mb 0.00 in0.0 mm 0.00 in0.0 mm 0.00 in0.0 mm
06:50 AM 45.8°F7.7°C 45.0°F7.2°C 97% 3.1 mph E5.0 kmh E 4.5 mph7.2 kmh 29.95 in1014.2 mb 0.00 in0.0 mm 0.00 in0.0 mm 0.00 in0.0 mm
06:45 AM 45.8°F7.7°C 45.0°F7.2°C 97% 1.8 mph ENE2.9 kmh ENE 3.1 mph5.0 kmh 29.95 in1014.2 mb 0.00 in0.0 mm 0.00 in0.0 mm 0.00 in0.0 mm
06:40 AM 45.9°F7.7°C 45.1°F7.3°C 97% 2.7 mph E4.3 kmh E 4.5 mph7.2 kmh 29.95 in1014.2 mb 0.00 in0.0 mm 0.00 in0.0 mm 0.00 in0.0 mm
06:35 AM 45.9°F7.7°C 45.1°F7.3°C 97% 2.5 mph ENE4.0 kmh ENE 4.5 mph7.2 kmh 29.95 in1014.2 mb 0.00 in0.0 mm 0.00 in0.0 mm 0.00 in0.0 mm
06:30 AM 45.9°F7.7°C 45.1°F7.3°C 97% 2.2 mph E3.5 kmh E 3.8 mph6.1 kmh 29.95 in1014.2 mb 0.00 in0.0 mm 0.00 in0.0 mm 0.00 in0.0 mm
06:25 AM 46.0°F7.8°C 45.2°F7.3°C 97% 2.5 mph NE4.0 kmh NE 5.4 mph8.7 kmh 29.95 in1014.2 mb 0.00 in0.0 mm 0.00 in0.0 mm 0.00 in0.0 mm
06:20 AM 46.2°F7.9°C 45.4°F7.4°C 97% 2.8 mph NE4.5 kmh NE 5.4 mph8.7 kmh 29.95 in1014.2 mb 0.00 in0.0 mm 0.00 in0.0 mm 0.00 in0.0 mm
06:15 AM 46.3°F7.9°C 45.9°F7.7°C 98% 3.1 mph ENE5.0 kmh ENE 4.5 mph7.2 kmh 29.95 in1014.2 mb 0.00 in0.0 mm 0.00 in0.0 mm 0.00 in0.0 mm
06:10 AM 46.6°F8.1°C 46.4°F8.0°C 99% 3.6 mph NE5.8 kmh NE 5.4 mph8.7 kmh 29.95 in1014.2 mb 0.00 in0.0 mm 0.00 in0.0 mm 0.00 in0.0 mm
06:05 AM 46.8°F8.2°C 46.5°F8.1°C 99% 3.8 mph NE6.1 kmh NE 5.4 mph8.7 kmh 29.95 in1014.2 mb 0.00 in0.0 mm 0.00 in0.0 mm 0.00 in0.0 mm
06:00 AM 46.8°F8.2°C 46.6°F8.1°C 99% 3.4 mph NE5.5 kmh NE 5.4 mph8.7 kmh 29.95 in1014.2 mb 0.00 in0.0 mm 0.00 in0.0 mm 0.00 in0.0 mm
05:55 AM 46.9°F8.3°C 46.7°F8.2°C 99% 4.4 mph NE7.1 kmh NE 6.9 mph11.1 kmh 29.95 in1014.2 mb 0.00 in0.0 mm 0.00 in0.0 mm 0.00 in0.0 mm
05:50 AM 46.9°F8.3°C 46.7°F8.2°C 99% 4.6 mph N7.4 kmh N 6.9 mph11.1 kmh 29.95 in1014.2 mb 0.00 in0.0 mm 0.00 in0.0 mm 0.00 in0.0 mm
05:45 AM 46.9°F8.3°C 46.7°F8.2°C 99% 4.3 mph NE6.9 kmh NE 7.6 mph12.2 kmh 29.95 in1014.2 mb 0.00 in0.0 mm 0.00 in0.0 mm 0.00 in0.0 mm
05:40 AM 46.9°F8.3°C 46.7°F8.2°C 99% 4.1 mph NE6.6 kmh NE 6.9 mph11.1 kmh 29.95 in1014.2 mb 0.00 in0.0 mm 0.00 in0.0 mm 0.00 in0.0 mm
05:35 AM 47.1°F8.4°C 46.8°F8.2°C 99% 2.6 mph ENE4.2 kmh ENE 4.5 mph7.2 kmh 29.95 in1014.2 mb 0.00 in0.0 mm 0.00 in0.0 mm 0.00 in0.0 mm
05:30 AM 47.2°F8.4°C 47.0°F8.3°C 99% 2.9 mph NE4.7 kmh NE 5.4 mph8.7 kmh 29.95 in1014.2 mb 0.00 in0.0 mm 0.00 in0.0 mm 0.00 in0.0 mm
05:25 AM 47.4°F8.6°C 47.1°F8.4°C 99% 3.0 mph NE4.8 kmh NE 5.4 mph8.7 kmh 29.95 in1014.2 mb 0.00 in0.0 mm 0.00 in0.0 mm 0.00 in0.0 mm
05:20 AM 47.5°F8.6°C 47.2°F8.4°C 99% 3.4 mph NE5.5 kmh NE 6.0 mph9.7 kmh 29.95 in1014.2 mb 0.00 in0.0 mm 0.00 in0.0 mm 0.00 in0.0 mm
05:15 AM 47.6°F8.7°C 47.3°F8.5°C 99% 4.3 mph NE6.9 kmh NE 6.9 mph11.1 kmh 29.95 in1014.2 mb 0.00 in0.0 mm 0.00 in0.0 mm 0.00 in0.0 mm
05:10 AM 47.7°F8.7°C 47.4°F8.6°C 99% 3.8 mph NE6.1 kmh NE 6.0 mph9.7 kmh 29.96 in1014.6 mb 0.00 in0.0 mm 0.00 in0.0 mm 0.00 in0.0 mm
05:05 AM 47.8°F8.8°C 47.5°F8.6°C 99% 3.5 mph NE5.6 kmh NE 5.4 mph8.7 kmh 29.96 in1014.6 mb 0.00 in0.0 mm 0.00 in0.0 mm 0.00 in0.0 mm
05:00 AM 47.8°F8.8°C 47.6°F8.7°C 99% 4.2 mph NE6.8 kmh NE 7.6 mph12.2 kmh 29.96 in1014.6 mb 0.00 in0.0 mm 0.00 in0.0 mm 0.00 in0.0 mm
04:55 AM 47.8°F8.8°C 47.6°F8.7°C 99% 2.5 mph NE4.0 kmh NE 5.4 mph8.7 kmh 29.96 in1014.6 mb 0.00 in0.0 mm 0.00 in0.0 mm 0.00 in0.0 mm
04:50 AM 47.9°F8.8°C 47.6°F8.7°C 99% 3.1 mph NE5.0 kmh NE 6.0 mph9.7 kmh 29.96 in1014.6 mb 0.00 in0.0 mm 0.00 in0.0 mm 0.00 in0.0 mm
04:45 AM 48.0°F8.9°C 47.8°F8.8°C 99% 3.2 mph NE5.1 kmh NE 5.4 mph8.7 kmh 29.96 in1014.6 mb 0.00 in0.0 mm 0.00 in0.0 mm 0.00 in0.0 mm
04:40 AM 48.0°F8.9°C 47.8°F8.8°C 99% 3.5 mph ENE5.6 kmh ENE 5.4 mph8.7 kmh 29.96 in1014.6 mb 0.00 in0.0 mm 0.00 in0.0 mm 0.00 in0.0 mm
04:35 AM 48.0°F8.9°C 47.8°F8.8°C 99% 3.4 mph NE5.5 kmh NE 5.4 mph8.7 kmh 29.96 in1014.6 mb 0.00 in0.0 mm 0.00 in0.0 mm 0.00 in0.0 mm
04:30 AM 48.0°F8.9°C 47.8°F8.8°C 99% 2.9 mph N4.7 kmh N 6.9 mph11.1 kmh 29.96 in1014.6 mb 0.00 in0.0 mm 0.00 in0.0 mm 0.00 in0.0 mm
04:25 AM 48.1°F8.9°C 47.8°F8.8°C 99% 3.5 mph ENE5.6 kmh ENE 5.4 mph8.7 kmh 29.96 in1014.6 mb 0.00 in0.0 mm 0.00 in0.0 mm 0.00 in0.0 mm
04:20 AM 48.2°F9.0°C 47.8°F8.8°C 98% 4.0 mph NE6.4 kmh NE 7.6 mph12.2 kmh 29.97 in1014.9 mb 0.00 in0.0 mm 0.00 in0.0 mm 0.00 in0.0 mm
04:15 AM 48.2°F9.0°C 47.7°F8.7°C 98% 4.5 mph ENE7.2 kmh ENE 8.3 mph13.4 kmh 29.97 in1014.9 mb 0.00 in0.0 mm 0.00 in0.0 mm 0.00 in0.0 mm
04:10 AM 48.3°F9.1°C 47.8°F8.8°C 98% 4.8 mph NE7.7 kmh NE 7.6 mph12.2 kmh 29.97 in1014.9 mb 0.00 in0.0 mm 0.00 in0.0 mm 0.00 in0.0 mm
04:05 AM 48.4°F9.1°C 47.8°F8.8°C 98% 4.5 mph NE7.2 kmh NE 6.9 mph11.1 kmh 29.97 in1014.9 mb 0.00 in0.0 mm 0.00 in0.0 mm 0.00 in0.0 mm
04:00 AM 48.5°F9.2°C 48.0°F8.9°C 98% 3.5 mph NE5.6 kmh NE 6.9 mph11.1 kmh 29.97 in1014.9 mb 0.00 in0.0 mm 0.00 in0.0 mm 0.00 in0.0 mm
03:55 AM 48.6°F9.2°C 48.0°F8.9°C 98% 5.1 mph NE8.2 kmh NE 7.6 mph12.2 kmh 29.97 in1014.9 mb 0.00 in0.0 mm 0.00 in0.0 mm 0.00 in0.0 mm
03:50 AM 48.7°F9.3°C 48.2°F9.0°C 98% 4.0 mph NE6.4 kmh NE 6.9 mph11.1 kmh 29.97 in1014.9 mb 0.00 in0.0 mm 0.00 in0.0 mm 0.00 in0.0 mm
03:45 AM 48.8°F9.3°C 48.2°F9.0°C 98% 3.2 mph NE5.1 kmh NE 5.4 mph8.7 kmh 29.97 in1014.9 mb 0.00 in0.0 mm 0.00 in0.0 mm 0.00 in0.0 mm
03:40 AM 48.9°F9.4°C 48.4°F9.1°C 98% 3.6 mph NE5.8 kmh NE 6.9 mph11.1 kmh 29.97 in1014.9 mb 0.00 in0.0 mm 0.00 in0.0 mm 0.00 in0.0 mm
03:35 AM 49.1°F9.5°C 48.6°F9.2°C 98% 4.1 mph ENE6.6 kmh ENE 7.6 mph12.2 kmh 29.97 in1014.9 mb 0.00 in0.0 mm 0.00 in0.0 mm 0.00 in0.0 mm
03:30 AM 49.2°F9.6°C 48.6°F9.2°C 98% 3.6 mph NE5.8 kmh NE 7.6 mph12.2 kmh 29.97 in1014.9 mb 0.00 in0.0 mm 0.00 in0.0 mm 0.00 in0.0 mm
03:25 AM 49.3°F9.6°C 48.7°F9.3°C 98% 2.9 mph NE4.7 kmh NE 6.9 mph11.1 kmh 29.97 in1014.9 mb 0.00 in0.0 mm 0.00 in0.0 mm 0.00 in0.0 mm
03:20 AM 49.4°F9.7°C 48.9°F9.4°C 98% 3.6 mph NE5.8 kmh NE 5.4 mph8.7 kmh 29.98 in1015.2 mb 0.00 in0.0 mm 0.00 in0.0 mm 0.00 in0.0 mm
03:15 AM 49.5°F9.7°C 48.9°F9.4°C 98% 4.4 mph NE7.1 kmh NE 6.9 mph11.1 kmh 29.98 in1015.2 mb 0.00 in0.0 mm 0.00 in0.0 mm 0.00 in0.0 mm
03:10 AM 49.6°F9.8°C 49.0°F9.4°C 98% 2.6 mph NE4.2 kmh NE 6.0 mph9.7 kmh 29.98 in1015.2 mb 0.00 in0.0 mm 0.00 in0.0 mm 0.00 in0.0 mm
03:05 AM 49.6°F9.8°C 49.1°F9.5°C 98% 2.5 mph NE4.0 kmh NE 4.5 mph7.2 kmh 29.98 in1015.2 mb 0.00 in0.0 mm 0.00 in0.0 mm 0.00 in0.0 mm
03:00 AM 49.6°F9.8°C 49.1°F9.5°C 98% 1.6 mph NE2.6 kmh NE 3.8 mph6.1 kmh 29.98 in1015.2 mb 0.00 in0.0 mm 0.00 in0.0 mm 0.00 in0.0 mm
02:55 AM 49.6°F9.8°C 49.1°F9.5°C 98% 0.9 mph NE1.4 kmh NE 2.2 mph3.5 kmh 29.99 in1015.6 mb 0.00 in0.0 mm 0.00 in0.0 mm 0.00 in0.0 mm
02:50 AM 49.6°F9.8°C 49.0°F9.4°C 98% 1.2 mph NNE1.9 kmh NNE 3.8 mph6.1 kmh 29.99 in1015.6 mb 0.00 in0.0 mm 0.00 in0.0 mm 0.00 in0.0 mm
02:45 AM 49.5°F9.7°C 48.9°F9.4°C 98% 0.6 mph NNE1.0 kmh NNE 3.8 mph6.1 kmh 29.99 in1015.6 mb 0.00 in0.0 mm 0.00 in0.0 mm 0.00 in0.0 mm
02:40 AM 49.6°F9.8°C 49.1°F9.5°C 98% Calm Calm -- 29.99 in1015.6 mb 0.00 in0.0 mm 0.00 in0.0 mm 0.00 in0.0 mm
02:35 AM 49.6°F9.8°C 49.1°F9.5°C 98% 0.2 mph SE0.3 kmh SE 1.6 mph2.6 kmh 29.99 in1015.6 mb 0.00 in0.0 mm 0.00 in0.0 mm 0.00 in0.0 mm
02:30 AM 49.6°F9.8°C 49.0°F9.4°C 98% 0.3 mph NE0.5 kmh NE 1.6 mph2.6 kmh 29.99 in1015.6 mb 0.00 in0.0 mm 0.00 in0.0 mm 0.00 in0.0 mm
02:25 AM 49.6°F9.8°C 48.9°F9.4°C 97% 0.7 mph NE1.1 kmh NE 1.6 mph2.6 kmh 29.99 in1015.6 mb 0.00 in0.0 mm 0.00 in0.0 mm 0.00 in0.0 mm
02:20 AM 49.5°F9.7°C 48.7°F9.3°C 97% 0.8 mph NE1.3 kmh NE 2.2 mph3.5 kmh 30.00 in1015.9 mb 0.00 in0.0 mm 0.00 in0.0 mm 0.00 in0.0 mm
02:15 AM 49.5°F9.7°C 48.6°F9.2°C 97% 0.4 mph NE0.6 kmh NE 1.6 mph2.6 kmh 30.00 in1015.9 mb 0.00 in0.0 mm 0.00 in0.0 mm 0.00 in0.0 mm
02:10 AM 49.5°F9.7°C 48.6°F9.2°C 97% 0.7 mph E1.1 kmh E 1.6 mph2.6 kmh 30.00 in1015.9 mb 0.00 in0.0 mm 0.00 in0.0 mm 0.00 in0.0 mm
02:05 AM 49.5°F9.7°C 48.6°F9.2°C 97% 0.7 mph E1.1 kmh E 1.6 mph2.6 kmh 30.00 in1015.9 mb 0.00 in0.0 mm 0.00 in0.0 mm 0.00 in0.0 mm
02:00 AM 49.6°F9.8°C 48.8°F9.3°C 97% 1.0 mph ENE1.6 kmh ENE 2.2 mph3.5 kmh 30.00 in1015.9 mb 0.00 in0.0 mm 0.00 in0.0 mm 0.00 in0.0 mm
01:55 AM 49.6°F9.8°C 48.8°F9.3°C 97% 0.6 mph NE1.0 kmh NE 2.2 mph3.5 kmh 30.00 in1015.9 mb 0.00 in0.0 mm 0.00 in0.0 mm 0.00 in0.0 mm
01:50 AM 49.6°F9.8°C 48.8°F9.3°C 97% 0.5 mph NNE0.8 kmh NNE 2.2 mph3.5 kmh 30.00 in1015.9 mb 0.00 in0.0 mm 0.00 in0.0 mm 0.00 in0.0 mm
01:45 AM 49.6°F9.8°C 48.8°F9.3°C 97% 1.0 mph N1.6 kmh N 3.1 mph5.0 kmh 30.00 in1015.9 mb 0.00 in0.0 mm 0.00 in0.0 mm 0.00 in0.0 mm
01:40 AM 49.6°F9.8°C 48.8°F9.3°C 97% 1.0 mph NE1.6 kmh NE 2.2 mph3.5 kmh 30.00 in1015.9 mb 0.00 in0.0 mm 0.00 in0.0 mm 0.00 in0.0 mm
01:35 AM 49.6°F9.8°C 48.8°F9.3°C 97% 2.1 mph ENE3.4 kmh ENE 3.1 mph5.0 kmh 30.00 in1015.9 mb 0.00 in0.0 mm 0.00 in0.0 mm 0.00 in0.0 mm
01:30 AM 49.6°F9.8°C 48.8°F9.3°C 97% 0.6 mph ENE1.0 kmh ENE 3.8 mph6.1 kmh 30.00 in1015.9 mb 0.00 in0.0 mm 0.00 in0.0 mm 0.00 in0.0 mm
01:25 AM 49.6°F9.8°C 48.5°F9.2°C 96% 1.0 mph NE1.6 kmh NE 3.1 mph5.0 kmh 30.00 in1015.9 mb 0.00 in0.0 mm 0.00 in0.0 mm 0.00 in0.0 mm
01:20 AM 49.8°F9.9°C 48.7°F9.3°C 96% 2.1 mph NE3.4 kmh NE 3.8 mph6.1 kmh 29.99 in1015.6 mb 0.00 in0.0 mm 0.00 in0.0 mm 0.00 in0.0 mm
01:15 AM 49.9°F9.9°C 48.7°F9.3°C 95% 2.4 mph NE3.9 kmh NE 3.8 mph6.1 kmh 29.99 in1015.6 mb 0.00 in0.0 mm 0.00 in0.0 mm 0.00 in0.0 mm
01:10 AM 50.0°F10.0°C 48.6°F9.2°C 95% 1.8 mph NNE2.9 kmh NNE 3.8 mph6.1 kmh 30.00 in1015.9 mb 0.00 in0.0 mm 0.00 in0.0 mm 0.00 in0.0 mm
01:05 AM 50.0°F10.0°C 48.6°F9.2°C 95% 0.7 mph NE1.1 kmh NE 3.8 mph6.1 kmh 29.99 in1015.6 mb 0.00 in0.0 mm 0.00 in0.0 mm 0.00 in0.0 mm
01:00 AM 50.0°F10.0°C 48.6°F9.2°C 95% 3.2 mph NE5.1 kmh NE 5.4 mph8.7 kmh 29.99 in1015.6 mb 0.00 in0.0 mm 0.00 in0.0 mm 0.00 in0.0 mm
12:55 AM 50.0°F10.0°C 48.6°F9.2°C 95% 1.7 mph ENE2.7 kmh ENE 3.8 mph6.1 kmh 30.00 in1015.9 mb 0.00 in0.0 mm 0.00 in0.0 mm 0.00 in0.0 mm
12:50 AM 50.0°F10.0°C 48.6°F9.2°C 95% 1.4 mph NNE2.3 kmh NNE 3.1 mph5.0 kmh 30.00 in1015.9 mb 0.00 in0.0 mm 0.00 in0.0 mm 0.00 in0.0 mm
12:45 AM 49.9°F9.9°C 48.4°F9.1°C 94% 0.8 mph N1.3 kmh N 2.2 mph3.5 kmh 30.00 in1015.9 mb 0.00 in0.0 mm 0.00 in0.0 mm 0.00 in0.0 mm
12:40 AM 49.8°F9.9°C 48.4°F9.1°C 95% 1.2 mph WSW1.9 kmh WSW 3.8 mph6.1 kmh 30.00 in1015.9 mb 0.00 in0.0 mm 0.00 in0.0 mm 0.00 in0.0 mm
12:35 AM 49.6°F9.8°C 48.3°F9.1°C 95% 0.7 mph SSW1.1 kmh SSW 3.8 mph6.1 kmh 30.00 in1015.9 mb 0.00 in0.0 mm 0.00 in0.0 mm 0.00 in0.0 mm
12:30 AM 49.6°F9.8°C 48.1°F8.9°C 94% 0.6 mph WSW1.0 kmh WSW 2.2 mph3.5 kmh 30.00 in1015.9 mb 0.00 in0.0 mm 0.00 in0.0 mm 0.00 in0.0 mm
12:25 AM 49.6°F9.8°C 48.0°F8.9°C 94% 0.4 mph S0.6 kmh S 2.2 mph3.5 kmh 30.01 in1016.3 mb 0.00 in0.0 mm 0.00 in0.0 mm 0.00 in0.0 mm
12:20 AM 49.6°F9.8°C 48.0°F8.9°C 94% 1.4 mph SW2.3 kmh SW 2.2 mph3.5 kmh 30.01 in1016.3 mb 0.00 in0.0 mm 0.00 in0.0 mm 0.00 in0.0 mm
12:15 AM 49.8°F9.9°C 48.1°F8.9°C 94% 0.9 mph WSW1.4 kmh WSW 2.2 mph3.5 kmh 30.01 in1016.3 mb 0.00 in0.0 mm 0.00 in0.0 mm 0.00 in0.0 mm
12:10 AM 50.1°F10.1°C 48.1°F8.9°C 93% 0.1 mph SW0.2 kmh SW 1.6 mph2.6 kmh 30.01 in1016.3 mb 0.00 in0.0 mm 0.00 in0.0 mm 0.00 in0.0 mm
12:05 AM 50.2°F10.1°C 48.2°F9.0°C 93% Calm Calm -- 30.01 in1016.3 mb 0.00 in0.0 mm 0.00 in0.0 mm 0.00 in0.0 mm
12:00 AM 50.2°F10.1°C 48.2°F9.0°C 93% 0.1 mph W0.2 kmh W 1.6 mph2.6 kmh 30.01 in1016.3 mb 0.00 in0.0 mm 0.00 in0.0 mm 0.00 in0.0 mm